sensor_id;sensor_type;location;lat;lon;timestamp;temperature;humidity
5041;DHT22;2539;52.568;13.364;2023-04-24T00:00:32;11.90;99.90
5041;DHT22;2539;52.568;13.364;2023-04-24T00:02:58;11.90;99.90
5041;DHT22;2539;52.568;13.364;2023-04-24T00:05:24;11.90;99.90
5041;DHT22;2539;52.568;13.364;2023-04-24T00:07:54;12.00;99.90
5041;DHT22;2539;52.568;13.364;2023-04-24T00:10:21;11.90;99.90
5041;DHT22;2539;52.568;13.364;2023-04-24T00:12:47;11.90;99.90
5041;DHT22;2539;52.568;13.364;2023-04-24T00:15:13;11.90;99.90
5041;DHT22;2539;52.568;13.364;2023-04-24T00:17:39;11.90;99.90
5041;DHT22;2539;52.568;13.364;2023-04-24T00:20:08;13.20;99.90
5041;DHT22;2539;52.568;13.364;2023-04-24T00:22:35;11.90;99.90
5041;DHT22;2539;52.568;13.364;2023-04-24T00:25:01;11.90;99.90
5041;DHT22;2539;52.568;13.364;2023-04-24T00:27:27;11.80;99.90
5041;DHT22;2539;52.568;13.364;2023-04-24T00:29:53;11.80;99.90
5041;DHT22;2539;52.568;13.364;2023-04-24T00:32:18;11.80;99.90
5041;DHT22;2539;52.568;13.364;2023-04-24T00:34:44;11.70;99.90
5041;DHT22;2539;52.568;13.364;2023-04-24T00:37:10;11.60;99.90
5041;DHT22;2539;52.568;13.364;2023-04-24T00:39:37;11.70;99.90
5041;DHT22;2539;52.568;13.364;2023-04-24T00:42:03;11.70;99.90
5041;DHT22;2539;52.568;13.364;2023-04-24T00:44:33;11.70;99.90
5041;DHT22;2539;52.568;13.364;2023-04-24T00:47:01;11.70;99.90
5041;DHT22;2539;52.568;13.364;2023-04-24T00:49:27;11.70;99.90
5041;DHT22;2539;52.568;13.364;2023-04-24T00:51:54;11.70;99.90
5041;DHT22;2539;52.568;13.364;2023-04-24T00:54:20;11.80;99.90
5041;DHT22;2539;52.568;13.364;2023-04-24T00:56:46;11.70;99.90
5041;DHT22;2539;52.568;13.364;2023-04-24T00:59:13;11.70;99.90
5041;DHT22;2539;52.568;13.364;2023-04-24T01:01:41;11.70;99.90
5041;DHT22;2539;52.568;13.364;2023-04-24T01:04:09;11.80;99.90
5041;DHT22;2539;52.568;13.364;2023-04-24T01:06:39;11.80;99.90
5041;DHT22;2539;52.568;13.364;2023-04-24T01:09:05;11.80;99.90
5041;DHT22;2539;52.568;13.364;2023-04-24T01:11:34;11.80;99.90
5041;DHT22;2539;52.568;13.364;2023-04-24T01:14:00;11.80;99.90
5041;DHT22;2539;52.568;13.364;2023-04-24T01:16:27;11.80;99.90
5041;DHT22;2539;52.568;13.364;2023-04-24T01:18:53;11.90;99.90
5041;DHT22;2539;52.568;13.364;2023-04-24T01:21:20;12.00;99.90
5041;DHT22;2539;52.568;13.364;2023-04-24T01:23:47;12.20;99.90
5041;DHT22;2539;52.568;13.364;2023-04-24T01:26:15;12.30;99.90
5041;DHT22;2539;52.568;13.364;2023-04-24T01:28:41;12.30;99.90
5041;DHT22;2539;52.568;13.364;2023-04-24T01:31:08;12.30;99.90
5041;DHT22;2539;52.568;13.364;2023-04-24T01:33:35;12.30;99.90
5041;DHT22;2539;52.568;13.364;2023-04-24T01:36:01;12.40;99.90
5041;DHT22;2539;52.568;13.364;2023-04-24T01:38:27;12.40;99.90
5041;DHT22;2539;52.568;13.364;2023-04-24T01:40:54;12.40;99.90
5041;DHT22;2539;52.568;13.364;2023-04-24T01:43:20;12.50;99.90
5041;DHT22;2539;52.568;13.364;2023-04-24T01:45:46;12.50;99.90
5041;DHT22;2539;52.568;13.364;2023-04-24T01:48:13;12.50;99.90
5041;DHT22;2539;52.568;13.364;2023-04-24T01:50:39;12.50;99.90
5041;DHT22;2539;52.568;13.364;2023-04-24T01:53:05;12.50;99.90
5041;DHT22;2539;52.568;13.364;2023-04-24T01:55:32;12.50;99.90
5041;DHT22;2539;52.568;13.364;2023-04-24T01:57:59;12.50;99.90
5041;DHT22;2539;52.568;13.364;2023-04-24T02:00:26;12.50;99.90
5041;DHT22;2539;52.568;13.364;2023-04-24T02:02:53;12.40;99.90
5041;DHT22;2539;52.568;13.364;2023-04-24T02:05:19;12.40;99.90
5041;DHT22;2539;52.568;13.364;2023-04-24T02:07:46;12.30;99.90
5041;DHT22;2539;52.568;13.364;2023-04-24T02:10:12;12.30;99.90
5041;DHT22;2539;52.568;13.364;2023-04-24T02:12:38;12.30;99.90
5041;DHT22;2539;52.568;13.364;2023-04-24T02:15:05;12.30;99.90
5041;DHT22;2539;52.568;13.364;2023-04-24T02:17:31;12.30;99.90
5041;DHT22;2539;52.568;13.364;2023-04-24T02:19:57;12.20;99.90
5041;DHT22;2539;52.568;13.364;2023-04-24T02:22:24;12.20;99.90
5041;DHT22;2539;52.568;13.364;2023-04-24T02:24:50;12.10;99.90
5041;DHT22;2539;52.568;13.364;2023-04-24T02:27:16;12.20;99.90
5041;DHT22;2539;52.568;13.364;2023-04-24T02:29:42;12.20;99.90
5041;DHT22;2539;52.568;13.364;2023-04-24T02:32:08;12.20;99.90
5041;DHT22;2539;52.568;13.364;2023-04-24T02:34:37;12.10;99.90
5041;DHT22;2539;52.568;13.364;2023-04-24T02:37:03;12.10;99.90
5041;DHT22;2539;52.568;13.364;2023-04-24T02:39:29;12.10;99.90
5041;DHT22;2539;52.568;13.364;2023-04-24T02:41:55;11.60;99.90
5041;DHT22;2539;52.568;13.364;2023-04-24T02:44:21;12.10;99.90
5041;DHT22;2539;52.568;13.364;2023-04-24T02:46:48;12.10;99.90
5041;DHT22;2539;52.568;13.364;2023-04-24T02:49:14;12.20;99.90
5041;DHT22;2539;52.568;13.364;2023-04-24T02:51:41;12.20;99.90
5041;DHT22;2539;52.568;13.364;2023-04-24T02:54:08;12.30;99.90
5041;DHT22;2539;52.568;13.364;2023-04-24T02:56:35;12.30;99.90
5041;DHT22;2539;52.568;13.364;2023-04-24T02:59:02;12.30;99.90
5041;DHT22;2539;52.568;13.364;2023-04-24T03:01:29;12.30;99.90
5041;DHT22;2539;52.568;13.364;2023-04-24T03:03:55;12.30;99.90
5041;DHT22;2539;52.568;13.364;2023-04-24T03:06:21;12.30;99.90
5041;DHT22;2539;52.568;13.364;2023-04-24T03:08:48;12.20;99.90
5041;DHT22;2539;52.568;13.364;2023-04-24T03:11:14;12.30;99.90
5041;DHT22;2539;52.568;13.364;2023-04-24T03:13:40;12.30;99.90
5041;DHT22;2539;52.568;13.364;2023-04-24T03:16:06;12.30;99.90
5041;DHT22;2539;52.568;13.364;2023-04-24T03:18:33;12.30;99.90
5041;DHT22;2539;52.568;13.364;2023-04-24T03:21:00;12.40;99.90
5041;DHT22;2539;52.568;13.364;2023-04-24T03:23:26;12.40;99.90
5041;DHT22;2539;52.568;13.364;2023-04-24T03:25:52;12.40;99.90
5041;DHT22;2539;52.568;13.364;2023-04-24T03:28:19;12.40;99.90
5041;DHT22;2539;52.568;13.364;2023-04-24T03:30:45;12.40;99.90
5041;DHT22;2539;52.568;13.364;2023-04-24T03:33:12;12.40;99.90
5041;DHT22;2539;52.568;13.364;2023-04-24T03:35:38;12.40;99.90
5041;DHT22;2539;52.568;13.364;2023-04-24T03:38:04;12.40;99.90
5041;DHT22;2539;52.568;13.364;2023-04-24T03:40:30;12.50;99.90
5041;DHT22;2539;52.568;13.364;2023-04-24T03:42:58;12.50;99.90
5041;DHT22;2539;52.568;13.364;2023-04-24T03:45:24;12.40;99.90
5041;DHT22;2539;52.568;13.364;2023-04-24T03:50:16;12.50;99.90
5041;DHT22;2539;52.568;13.364;2023-04-24T03:52:42;12.50;99.90
5041;DHT22;2539;52.568;13.364;2023-04-24T03:55:09;12.40;99.90
5041;DHT22;2539;52.568;13.364;2023-04-24T03:57:40;12.50;99.90
5041;DHT22;2539;52.568;13.364;2023-04-24T04:00:06;12.40;99.90
5041;DHT22;2539;52.568;13.364;2023-04-24T04:02:32;12.50;99.90
5041;DHT22;2539;52.568;13.364;2023-04-24T04:04:58;12.50;99.90
5041;DHT22;2539;52.568;13.364;2023-04-24T04:07:23;12.40;99.90
5041;DHT22;2539;52.568;13.364;2023-04-24T04:09:50;12.40;99.90
5041;DHT22;2539;52.568;13.364;2023-04-24T04:12:16;12.40;99.90
5041;DHT22;2539;52.568;13.364;2023-04-24T04:14:42;12.40;99.90
5041;DHT22;2539;52.568;13.364;2023-04-24T04:17:08;12.40;99.90
5041;DHT22;2539;52.568;13.364;2023-04-24T04:19:35;12.40;99.90
5041;DHT22;2539;52.568;13.364;2023-04-24T04:22:01;12.40;99.90
5041;DHT22;2539;52.568;13.364;2023-04-24T04:24:27;12.50;99.90
5041;DHT22;2539;52.568;13.364;2023-04-24T04:26:54;12.50;99.90
5041;DHT22;2539;52.568;13.364;2023-04-24T04:29:22;12.50;99.90
5041;DHT22;2539;52.568;13.364;2023-04-24T04:31:50;12.50;99.90
5041;DHT22;2539;52.568;13.364;2023-04-24T04:34:16;12.50;99.90
5041;DHT22;2539;52.568;13.364;2023-04-24T04:36:42;12.50;99.90
5041;DHT22;2539;52.568;13.364;2023-04-24T04:39:09;12.50;99.90
5041;DHT22;2539;52.568;13.364;2023-04-24T04:41:35;12.50;99.90
5041;DHT22;2539;52.568;13.364;2023-04-24T04:44:02;12.50;99.90
5041;DHT22;2539;52.568;13.364;2023-04-24T04:46:31;12.50;99.90
5041;DHT22;2539;52.568;13.364;2023-04-24T04:49:00;12.60;99.90
5041;DHT22;2539;52.568;13.364;2023-04-24T04:51:27;12.60;99.90
5041;DHT22;2539;52.568;13.364;2023-04-24T04:53:53;12.70;99.90
5041;DHT22;2539;52.568;13.364;2023-04-24T04:56:20;12.70;99.90
5041;DHT22;2539;52.568;13.364;2023-04-24T04:58:46;12.80;99.90
5041;DHT22;2539;52.568;13.364;2023-04-24T05:01:12;12.80;99.90
5041;DHT22;2539;52.568;13.364;2023-04-24T05:03:37;12.90;99.90
5041;DHT22;2539;52.568;13.364;2023-04-24T05:06:03;12.90;99.90
5041;DHT22;2539;52.568;13.364;2023-04-24T05:08:29;12.90;99.90
5041;DHT22;2539;52.568;13.364;2023-04-24T05:10:55;12.90;99.90
5041;DHT22;2539;52.568;13.364;2023-04-24T05:13:22;13.00;99.90
5041;DHT22;2539;52.568;13.364;2023-04-24T05:15:48;13.00;99.90
5041;DHT22;2539;52.568;13.364;2023-04-24T05:20:41;13.00;99.90
5041;DHT22;2539;52.568;13.364;2023-04-24T05:23:10;13.00;99.90
5041;DHT22;2539;52.568;13.364;2023-04-24T05:25:36;13.00;99.90
5041;DHT22;2539;52.568;13.364;2023-04-24T05:28:02;13.10;99.90
5041;DHT22;2539;52.568;13.364;2023-04-24T05:30:29;13.10;99.90
5041;DHT22;2539;52.568;13.364;2023-04-24T05:32:55;13.20;99.90
5041;DHT22;2539;52.568;13.364;2023-04-24T05:35:21;13.20;99.90
5041;DHT22;2539;52.568;13.364;2023-04-24T05:37:48;13.30;99.90
5041;DHT22;2539;52.568;13.364;2023-04-24T05:40:14;13.30;99.90
5041;DHT22;2539;52.568;13.364;2023-04-24T05:42:40;13.30;99.90
5041;DHT22;2539;52.568;13.364;2023-04-24T05:45:06;13.30;99.90
5041;DHT22;2539;52.568;13.364;2023-04-24T05:49:58;13.40;99.90
5041;DHT22;2539;52.568;13.364;2023-04-24T05:52:24;13.30;99.90
5041;DHT22;2539;52.568;13.364;2023-04-24T05:54:51;13.30;99.90
5041;DHT22;2539;52.568;13.364;2023-04-24T05:57:17;13.30;99.90
5041;DHT22;2539;52.568;13.364;2023-04-24T05:59:43;13.30;99.90
5041;DHT22;2539;52.568;13.364;2023-04-24T06:02:08;13.40;99.90
5041;DHT22;2539;52.568;13.364;2023-04-24T06:04:34;13.40;99.90
5041;DHT22;2539;52.568;13.364;2023-04-24T06:07:00;13.50;99.90
5041;DHT22;2539;52.568;13.364;2023-04-24T06:09:26;13.60;99.90
5041;DHT22;2539;52.568;13.364;2023-04-24T06:11:53;13.60;99.90
5041;DHT22;2539;52.568;13.364;2023-04-24T06:14:20;13.70;99.90
5041;DHT22;2539;52.568;13.364;2023-04-24T06:16:46;13.80;99.90
5041;DHT22;2539;52.568;13.364;2023-04-24T06:19:12;13.80;99.90
5041;DHT22;2539;52.568;13.364;2023-04-24T06:21:39;13.90;99.90
5041;DHT22;2539;52.568;13.364;2023-04-24T06:24:05;13.90;99.90
5041;DHT22;2539;52.568;13.364;2023-04-24T06:26:32;13.90;99.90
5041;DHT22;2539;52.568;13.364;2023-04-24T06:28:58;14.00;99.90
5041;DHT22;2539;52.568;13.364;2023-04-24T06:31:25;13.50;99.90
5041;DHT22;2539;52.568;13.364;2023-04-24T06:33:51;14.30;99.90
5041;DHT22;2539;52.568;13.364;2023-04-24T06:36:18;14.40;99.90
5041;DHT22;2539;52.568;13.364;2023-04-24T06:38:44;14.60;99.90
5041;DHT22;2539;52.568;13.364;2023-04-24T06:41:11;14.90;99.90
5041;DHT22;2539;52.568;13.364;2023-04-24T06:43:37;14.90;99.90
5041;DHT22;2539;52.568;13.364;2023-04-24T06:46:03;15.10;99.90
5041;DHT22;2539;52.568;13.364;2023-04-24T06:48:30;15.00;99.90
5041;DHT22;2539;52.568;13.364;2023-04-24T06:50:56;15.20;99.90
5041;DHT22;2539;52.568;13.364;2023-04-24T06:53:22;15.10;99.90
5041;DHT22;2539;52.568;13.364;2023-04-24T06:55:50;15.20;99.90
5041;DHT22;2539;52.568;13.364;2023-04-24T06:58:16;15.30;99.90
5041;DHT22;2539;52.568;13.364;2023-04-24T07:00:42;15.20;99.90
5041;DHT22;2539;52.568;13.364;2023-04-24T07:03:09;15.50;99.90
5041;DHT22;2539;52.568;13.364;2023-04-24T07:05:35;15.70;99.90
5041;DHT22;2539;52.568;13.364;2023-04-24T07:08:03;15.20;99.90
5041;DHT22;2539;52.568;13.364;2023-04-24T07:10:29;15.10;99.90
5041;DHT22;2539;52.568;13.364;2023-04-24T07:12:56;15.30;99.90
5041;DHT22;2539;52.568;13.364;2023-04-24T07:15:23;15.30;99.90
5041;DHT22;2539;52.568;13.364;2023-04-24T07:20:16;15.20;99.90
5041;DHT22;2539;52.568;13.364;2023-04-24T07:22:43;15.40;99.90
5041;DHT22;2539;52.568;13.364;2023-04-24T07:25:09;15.40;99.90
5041;DHT22;2539;52.568;13.364;2023-04-24T07:27:35;15.40;99.90
5041;DHT22;2539;52.568;13.364;2023-04-24T07:30:03;15.40;99.90
5041;DHT22;2539;52.568;13.364;2023-04-24T07:32:30;15.10;99.90
5041;DHT22;2539;52.568;13.364;2023-04-24T07:34:56;16.60;99.90
5041;DHT22;2539;52.568;13.364;2023-04-24T07:37:23;14.90;99.90
5041;DHT22;2539;52.568;13.364;2023-04-24T07:39:49;14.90;99.90
5041;DHT22;2539;52.568;13.364;2023-04-24T07:42:16;15.00;99.90
5041;DHT22;2539;52.568;13.364;2023-04-24T07:44:42;15.00;99.90
5041;DHT22;2539;52.568;13.364;2023-04-24T07:47:09;15.30;99.90
5041;DHT22;2539;52.568;13.364;2023-04-24T07:49:35;15.30;99.90
5041;DHT22;2539;52.568;13.364;2023-04-24T07:52:02;15.40;99.90
5041;DHT22;2539;52.568;13.364;2023-04-24T07:54:29;15.40;99.90
5041;DHT22;2539;52.568;13.364;2023-04-24T07:56:55;15.30;99.90
5041;DHT22;2539;52.568;13.364;2023-04-24T07:59:20;15.40;99.90
5041;DHT22;2539;52.568;13.364;2023-04-24T08:01:46;15.40;99.90
5041;DHT22;2539;52.568;13.364;2023-04-24T08:04:12;15.70;99.90
5041;DHT22;2539;52.568;13.364;2023-04-24T08:06:38;16.10;99.90
5041;DHT22;2539;52.568;13.364;2023-04-24T08:09:04;16.40;99.90
5041;DHT22;2539;52.568;13.364;2023-04-24T08:11:31;16.80;99.90
5041;DHT22;2539;52.568;13.364;2023-04-24T08:13:58;17.00;99.90
5041;DHT22;2539;52.568;13.364;2023-04-24T08:16:24;16.90;99.90
5041;DHT22;2539;52.568;13.364;2023-04-24T08:18:51;16.70;99.90
5041;DHT22;2539;52.568;13.364;2023-04-24T08:21:17;16.10;99.90
5041;DHT22;2539;52.568;13.364;2023-04-24T08:23:44;16.60;99.90
5041;DHT22;2539;52.568;13.364;2023-04-24T08:26:11;17.20;99.90
5041;DHT22;2539;52.568;13.364;2023-04-24T08:28:37;17.30;99.90
5041;DHT22;2539;52.568;13.364;2023-04-24T08:31:02;17.80;99.90
5041;DHT22;2539;52.568;13.364;2023-04-24T08:33:29;17.80;99.90
5041;DHT22;2539;52.568;13.364;2023-04-24T08:36:05;17.90;99.90
5041;DHT22;2539;52.568;13.364;2023-04-24T08:38:31;16.90;99.90
5041;DHT22;2539;52.568;13.364;2023-04-24T08:41:01;17.10;99.90
5041;DHT22;2539;52.568;13.364;2023-04-24T08:43:27;17.60;99.90
5041;DHT22;2539;52.568;13.364;2023-04-24T08:45:55;18.00;99.90
5041;DHT22;2539;52.568;13.364;2023-04-24T08:48:22;18.10;99.90
5041;DHT22;2539;52.568;13.364;2023-04-24T08:50:50;18.40;99.90
5041;DHT22;2539;52.568;13.364;2023-04-24T08:53:18;18.50;99.90
5041;DHT22;2539;52.568;13.364;2023-04-24T08:55:47;18.70;99.90
5041;DHT22;2539;52.568;13.364;2023-04-24T08:58:16;19.00;99.90
5041;DHT22;2539;52.568;13.364;2023-04-24T09:00:43;19.20;99.90
5041;DHT22;2539;52.568;13.364;2023-04-24T09:03:16;19.40;99.90
5041;DHT22;2539;52.568;13.364;2023-04-24T09:05:44;19.60;99.90
5041;DHT22;2539;52.568;13.364;2023-04-24T09:08:13;19.50;99.90
5041;DHT22;2539;52.568;13.364;2023-04-24T09:10:40;19.20;99.90
5041;DHT22;2539;52.568;13.364;2023-04-24T09:13:07;18.40;99.90
5041;DHT22;2539;52.568;13.364;2023-04-24T09:15:40;18.00;99.90
5041;DHT22;2539;52.568;13.364;2023-04-24T09:18:06;18.00;99.90
5041;DHT22;2539;52.568;13.364;2023-04-24T09:20:33;18.30;99.90
5041;DHT22;2539;52.568;13.364;2023-04-24T09:23:02;18.50;99.90
5041;DHT22;2539;52.568;13.364;2023-04-24T09:25:32;18.40;99.90
5041;DHT22;2539;52.568;13.364;2023-04-24T09:28:03;18.50;99.90
5041;DHT22;2539;52.568;13.364;2023-04-24T09:30:30;18.70;99.90
5041;DHT22;2539;52.568;13.364;2023-04-24T09:33:14;18.90;99.90
5041;DHT22;2539;52.568;13.364;2023-04-24T09:35:51;19.20;99.90
5041;DHT22;2539;52.568;13.364;2023-04-24T09:38:18;19.60;99.90
5041;DHT22;2539;52.568;13.364;2023-04-24T09:40:44;19.70;99.90
5041;DHT22;2539;52.568;13.364;2023-04-24T09:43:11;19.60;99.90
5041;DHT22;2539;52.568;13.364;2023-04-24T09:45:38;19.40;99.90
5041;DHT22;2539;52.568;13.364;2023-04-24T09:48:08;19.10;99.90
5041;DHT22;2539;52.568;13.364;2023-04-24T09:50:35;18.90;99.90
5041;DHT22;2539;52.568;13.364;2023-04-24T09:53:03;18.80;99.90
5041;DHT22;2539;52.568;13.364;2023-04-24T09:55:30;18.60;99.90
5041;DHT22;2539;52.568;13.364;2023-04-24T09:57:58;18.30;99.90
5041;DHT22;2539;52.568;13.364;2023-04-24T10:00:32;18.00;99.90
5041;DHT22;2539;52.568;13.364;2023-04-24T10:03:04;17.70;99.90
5041;DHT22;2539;52.568;13.364;2023-04-24T10:05:32;17.60;99.90
5041;DHT22;2539;52.568;13.364;2023-04-24T10:08:04;17.50;99.90
5041;DHT22;2539;52.568;13.364;2023-04-24T10:10:32;17.70;99.90
5041;DHT22;2539;52.568;13.364;2023-04-24T10:12:59;18.00;99.90
5041;DHT22;2539;52.568;13.364;2023-04-24T10:15:27;18.30;99.90
5041;DHT22;2539;52.568;13.364;2023-04-24T10:17:53;18.30;99.90
5041;DHT22;2539;52.568;13.364;2023-04-24T10:20:22;18.30;99.90
5041;DHT22;2539;52.568;13.364;2023-04-24T10:22:49;18.50;99.90
5041;DHT22;2539;52.568;13.364;2023-04-24T10:25:20;18.70;99.90
5041;DHT22;2539;52.568;13.364;2023-04-24T10:27:47;18.70;99.90
5041;DHT22;2539;52.568;13.364;2023-04-24T10:30:14;18.60;99.90
5041;DHT22;2539;52.568;13.364;2023-04-24T10:32:40;18.20;99.90
5041;DHT22;2539;52.568;13.364;2023-04-24T10:35:08;18.40;99.90
5041;DHT22;2539;52.568;13.364;2023-04-24T10:37:37;18.10;99.90
5041;DHT22;2539;52.568;13.364;2023-04-24T10:40:06;17.90;99.90
5041;DHT22;2539;52.568;13.364;2023-04-24T10:42:34;17.60;99.90
5041;DHT22;2539;52.568;13.364;2023-04-24T10:45:16;17.30;99.90
5041;DHT22;2539;52.568;13.364;2023-04-24T10:47:58;17.00;99.90
5041;DHT22;2539;52.568;13.364;2023-04-24T10:50:29;16.80;99.90
5041;DHT22;2539;52.568;13.364;2023-04-24T10:53:13;16.60;99.90
5041;DHT22;2539;52.568;13.364;2023-04-24T10:55:46;16.50;99.90
5041;DHT22;2539;52.568;13.364;2023-04-24T10:58:12;16.50;99.90
5041;DHT22;2539;52.568;13.364;2023-04-24T11:00:40;16.60;99.90
5041;DHT22;2539;52.568;13.364;2023-04-24T11:03:30;16.70;99.90
5041;DHT22;2539;52.568;13.364;2023-04-24T11:06:03;16.80;99.90
5041;DHT22;2539;52.568;13.364;2023-04-24T11:08:50;17.00;99.90
5041;DHT22;2539;52.568;13.364;2023-04-24T11:11:18;17.60;99.90
5041;DHT22;2539;52.568;13.364;2023-04-24T11:16:37;18.60;99.90
5041;DHT22;2539;52.568;13.364;2023-04-24T11:21:41;19.10;99.90
5041;DHT22;2539;52.568;13.364;2023-04-24T11:24:28;19.30;99.90
5041;DHT22;2539;52.568;13.364;2023-04-24T11:26:57;19.10;99.90
5041;DHT22;2539;52.568;13.364;2023-04-24T11:30:21;19.50;99.90
5041;DHT22;2539;52.568;13.364;2023-04-24T11:35:00;18.80;99.90
5041;DHT22;2539;52.568;13.364;2023-04-24T11:37:29;18.40;99.90
5041;DHT22;2539;52.568;13.364;2023-04-24T11:39:59;18.10;99.90
5041;DHT22;2539;52.568;13.364;2023-04-24T11:42:25;17.60;99.90
5041;DHT22;2539;52.568;13.364;2023-04-24T11:44:53;19.60;99.90
5041;DHT22;2539;52.568;13.364;2023-04-24T11:47:28;16.90;99.90
5041;DHT22;2539;52.568;13.364;2023-04-24T11:49:55;16.30;99.90
5041;DHT22;2539;52.568;13.364;2023-04-24T11:54:49;15.70;99.90
5041;DHT22;2539;52.568;13.364;2023-04-24T11:57:18;15.60;99.90
5041;DHT22;2539;52.568;13.364;2023-04-24T11:59:45;15.50;99.90
5041;DHT22;2539;52.568;13.364;2023-04-24T12:02:26;15.60;99.90
5041;DHT22;2539;52.568;13.364;2023-04-24T12:04:53;15.80;99.90
5041;DHT22;2539;52.568;13.364;2023-04-24T12:07:20;16.20;99.90
5041;DHT22;2539;52.568;13.364;2023-04-24T12:09:57;16.50;99.90
5041;DHT22;2539;52.568;13.364;2023-04-24T12:12:28;16.80;99.90
5041;DHT22;2539;52.568;13.364;2023-04-24T12:14:56;17.30;99.90
5041;DHT22;2539;52.568;13.364;2023-04-24T12:17:31;17.20;99.90
5041;DHT22;2539;52.568;13.364;2023-04-24T12:25:12;17.20;99.90
5041;DHT22;2539;52.568;13.364;2023-04-24T12:27:38;17.20;99.90
5041;DHT22;2539;52.568;13.364;2023-04-24T12:30:05;17.40;99.90
5041;DHT22;2539;52.568;13.364;2023-04-24T12:32:45;17.50;99.90
5041;DHT22;2539;52.568;13.364;2023-04-24T12:37:38;17.70;99.90
5041;DHT22;2539;52.568;13.364;2023-04-24T12:40:09;17.90;99.90
5041;DHT22;2539;52.568;13.364;2023-04-24T12:42:45;18.10;99.90
5041;DHT22;2539;52.568;13.364;2023-04-24T12:45:12;18.30;99.90
5041;DHT22;2539;52.568;13.364;2023-04-24T12:50:08;18.10;99.90
5041;DHT22;2539;52.568;13.364;2023-04-24T12:52:34;17.90;99.90
5041;DHT22;2539;52.568;13.364;2023-04-24T12:55:01;17.40;99.90
5041;DHT22;2539;52.568;13.364;2023-04-24T12:57:29;17.10;99.90
5041;DHT22;2539;52.568;13.364;2023-04-24T12:59:58;16.50;99.90
5041;DHT22;2539;52.568;13.364;2023-04-24T13:02:25;16.30;99.90
5041;DHT22;2539;52.568;13.364;2023-04-24T13:04:53;16.40;99.90
5041;DHT22;2539;52.568;13.364;2023-04-24T13:07:20;16.90;99.90
5041;DHT22;2539;52.568;13.364;2023-04-24T13:09:48;17.20;99.90
5041;DHT22;2539;52.568;13.364;2023-04-24T13:12:14;17.30;99.90
5041;DHT22;2539;52.568;13.364;2023-04-24T13:14:41;17.10;99.90
5041;DHT22;2539;52.568;13.364;2023-04-24T13:17:07;17.20;99.90
5041;DHT22;2539;52.568;13.364;2023-04-24T13:19:37;16.90;99.90
5041;DHT22;2539;52.568;13.364;2023-04-24T13:22:04;17.30;99.90
5041;DHT22;2539;52.568;13.364;2023-04-24T13:24:31;17.80;99.90
5041;DHT22;2539;52.568;13.364;2023-04-24T13:26:58;17.70;99.90
5041;DHT22;2539;52.568;13.364;2023-04-24T13:31:51;17.00;99.90
5041;DHT22;2539;52.568;13.364;2023-04-24T13:34:20;16.90;99.90
5041;DHT22;2539;52.568;13.364;2023-04-24T13:36:47;16.60;99.90
5041;DHT22;2539;52.568;13.364;2023-04-24T13:39:13;16.90;99.90
5041;DHT22;2539;52.568;13.364;2023-04-24T13:41:40;16.90;99.90
5041;DHT22;2539;52.568;13.364;2023-04-24T13:44:06;16.90;99.90
5041;DHT22;2539;52.568;13.364;2023-04-24T13:46:32;17.10;99.90
5041;DHT22;2539;52.568;13.364;2023-04-24T13:48:59;16.90;99.90
5041;DHT22;2539;52.568;13.364;2023-04-24T13:51:26;17.20;99.90
5041;DHT22;2539;52.568;13.364;2023-04-24T13:53:55;17.60;99.90
5041;DHT22;2539;52.568;13.364;2023-04-24T13:56:22;18.10;99.90
5041;DHT22;2539;52.568;13.364;2023-04-24T13:58:48;18.30;99.90
5041;DHT22;2539;52.568;13.364;2023-04-24T14:01:15;18.40;99.90
5041;DHT22;2539;52.568;13.364;2023-04-24T14:03:42;18.10;99.90
5041;DHT22;2539;52.568;13.364;2023-04-24T14:06:11;20.10;99.90
5041;DHT22;2539;52.568;13.364;2023-04-24T14:08:37;18.30;99.90
5041;DHT22;2539;52.568;13.364;2023-04-24T14:11:04;18.20;99.90
5041;DHT22;2539;52.568;13.364;2023-04-24T14:13:30;18.30;99.90
5041;DHT22;2539;52.568;13.364;2023-04-24T14:15:56;18.20;99.90
5041;DHT22;2539;52.568;13.364;2023-04-24T14:18:23;18.50;99.80
5041;DHT22;2539;52.568;13.364;2023-04-24T14:20:50;18.30;99.30
5041;DHT22;2539;52.568;13.364;2023-04-24T14:23:16;18.00;99.20
5041;DHT22;2539;52.568;13.364;2023-04-24T14:25:42;17.90;98.60
5041;DHT22;2539;52.568;13.364;2023-04-24T14:28:09;18.10;99.10
5041;DHT22;2539;52.568;13.364;2023-04-24T14:30:35;18.50;97.90
5041;DHT22;2539;52.568;13.364;2023-04-24T14:33:03;18.70;96.60
5041;DHT22;2539;52.568;13.364;2023-04-24T14:35:30;18.50;95.60
5041;DHT22;2539;52.568;13.364;2023-04-24T14:37:59;18.30;94.50
5041;DHT22;2539;52.568;13.364;2023-04-24T14:40:25;18.10;92.90
5041;DHT22;2539;52.568;13.364;2023-04-24T14:42:51;17.90;93.40
5041;DHT22;2539;52.568;13.364;2023-04-24T14:45:18;17.60;93.80
5041;DHT22;2539;52.568;13.364;2023-04-24T14:47:45;17.80;93.40
5041;DHT22;2539;52.568;13.364;2023-04-24T14:50:11;18.00;93.60
5041;DHT22;2539;52.568;13.364;2023-04-24T14:52:38;18.00;92.20
5041;DHT22;2539;52.568;13.364;2023-04-24T14:55:05;18.10;92.30
5041;DHT22;2539;52.568;13.364;2023-04-24T14:57:33;18.30;92.10
5041;DHT22;2539;52.568;13.364;2023-04-24T15:00:00;18.30;91.70
5041;DHT22;2539;52.568;13.364;2023-04-24T15:02:26;18.00;91.50
5041;DHT22;2539;52.568;13.364;2023-04-24T15:04:53;17.90;91.50
5041;DHT22;2539;52.568;13.364;2023-04-24T15:07:19;18.00;92.00
5041;DHT22;2539;52.568;13.364;2023-04-24T15:09:45;18.40;91.60
5041;DHT22;2539;52.568;13.364;2023-04-24T15:12:13;18.70;91.30
5041;DHT22;2539;52.568;13.364;2023-04-24T15:14:39;18.60;90.50
5041;DHT22;2539;52.568;13.364;2023-04-24T15:17:05;18.30;91.00
5041;DHT22;2539;52.568;13.364;2023-04-24T15:19:32;18.20;91.30
5041;DHT22;2539;52.568;13.364;2023-04-24T15:21:58;18.10;92.00
5041;DHT22;2539;52.568;13.364;2023-04-24T15:24:24;18.20;90.80
5041;DHT22;2539;52.568;13.364;2023-04-24T15:26:51;19.00;90.30
5041;DHT22;2539;52.568;13.364;2023-04-24T15:29:17;19.00;88.40
5041;DHT22;2539;52.568;13.364;2023-04-24T15:31:43;18.90;87.00
5041;DHT22;2539;52.568;13.364;2023-04-24T15:34:10;18.70;87.90
5041;DHT22;2539;52.568;13.364;2023-04-24T15:36:36;18.30;87.30
5041;DHT22;2539;52.568;13.364;2023-04-24T15:39:02;19.10;89.90
5041;DHT22;2539;52.568;13.364;2023-04-24T15:41:29;17.40;90.40
5041;DHT22;2539;52.568;13.364;2023-04-24T15:43:55;17.20;91.30
5041;DHT22;2539;52.568;13.364;2023-04-24T15:46:21;17.10;92.80
5041;DHT22;2539;52.568;13.364;2023-04-24T15:48:47;16.80;93.10
5041;DHT22;2539;52.568;13.364;2023-04-24T15:51:14;16.90;94.10
5041;DHT22;2539;52.568;13.364;2023-04-24T15:53:40;16.90;94.10
5041;DHT22;2539;52.568;13.364;2023-04-24T15:56:07;16.90;94.00
5041;DHT22;2539;52.568;13.364;2023-04-24T15:58:34;16.80;93.90
5041;DHT22;2539;52.568;13.364;2023-04-24T16:01:00;16.60;93.90
5041;DHT22;2539;52.568;13.364;2023-04-24T16:03:26;16.50;94.40
5041;DHT22;2539;52.568;13.364;2023-04-24T16:05:52;16.40;94.80
5041;DHT22;2539;52.568;13.364;2023-04-24T16:10:47;16.20;94.50
5041;DHT22;2539;52.568;13.364;2023-04-24T16:13:15;16.90;95.30
5041;DHT22;2539;52.568;13.364;2023-04-24T16:15:44;16.00;95.30
5041;DHT22;2539;52.568;13.364;2023-04-24T16:18:10;16.00;95.70
5041;DHT22;2539;52.568;13.364;2023-04-24T16:20:36;16.00;95.50